createdAt,value
2019-04-20T00:00:50.945Z,166479.97
2019-04-20T00:03:15.922Z,166509.41
2019-04-20T00:05:45.508Z,166450.53
2019-04-20T00:08:20.075Z,166486.63
2019-04-20T00:10:54.328Z,166553.50
2019-04-20T00:13:24.496Z,166585.66
2019-04-20T00:15:45.092Z,166556.22
2019-04-20T00:18:14.864Z,166553.50
2019-04-20T00:20:51.427Z,166526.77
2019-04-20T00:23:40.455Z,166516.06
2019-04-20T00:27:04.435Z,166498.69
2019-04-20T00:29:21.638Z,166438.47
2019-04-20T00:31:45.461Z,166410.39
2019-04-20T00:34:14.084Z,166405.03
2019-04-20T00:36:36.964Z,166387.67
2019-04-20T00:39:10.877Z,166370.25
2019-04-20T00:41:44.159Z,166355.53
2019-04-20T00:44:13.381Z,166347.53
2019-04-20T00:46:53.443Z,166304.75
2019-04-20T00:49:27.727Z,166292.69
2019-04-20T00:52:07.612Z,166310.11
2019-04-20T00:54:09.521Z,166253.97
2019-04-20T00:56:39.185Z,166219.16
2019-04-20T00:59:20.740Z,166241.86
2019-04-20T01:02:00.839Z,166211.09
2019-04-20T01:04:23.897Z,166165.69
2019-04-20T01:07:11.342Z,166130.91
2019-04-20T01:10:05.121Z,166183.03
2019-04-20T01:12:36.598Z,166193.73
2019-04-20T01:15:09.913Z,166173.69
2019-04-20T01:17:37.768Z,166133.56
2019-04-20T01:20:06.806Z,166086.81
2019-04-20T01:22:40.297Z,166064.09
2019-04-20T01:25:14.175Z,166090.80
2019-04-20T01:27:50.118Z,166157.63
2019-04-20T01:30:20.057Z,166128.27
2019-04-20T01:32:55.372Z,166114.86
2019-04-20T01:35:26.056Z,166120.22
2019-04-20T01:37:57.508Z,166060.09
2019-04-20T01:40:11.317Z,166066.75
2019-04-20T01:42:40.381Z,166066.75
2019-04-20T01:45:16.798Z,166029.34
2019-04-20T01:47:45.809Z,166038.70
2019-04-20T01:50:14.212Z,165997.30
2019-04-20T01:52:51.754Z,165975.91
2019-04-20T01:55:33.316Z,165978.59
2019-04-20T01:58:22.519Z,165965.20
2019-04-20T02:00:46.937Z,165962.56
2019-04-20T02:03:38.374Z,165887.77
2019-04-20T02:06:10.539Z,165834.34
2019-04-20T02:08:35.732Z,165903.77
2019-04-20T02:11:07.350Z,165891.77
2019-04-20T02:13:43.667Z,165878.38
2019-04-20T02:16:15.831Z,165869.03
2019-04-20T02:18:44.228Z,165858.37
2019-04-20T02:21:25.869Z,165881.06
2019-04-20T02:23:47.416Z,165877.08
2019-04-20T02:26:07.031Z,165811.55
2019-04-20T02:29:03.300Z,165811.55
2019-04-20T02:31:44.513Z,165818.25
2019-04-20T02:35:01.595Z,165843.69
2019-04-20T02:47:07.921Z,165911.81
2019-04-20T02:52:06.140Z,165895.77
2019-04-20T02:57:05.535Z,165909.11
2019-04-20T02:59:53.340Z,165889.06
2019-04-20T03:01:51.775Z,165889.06
2019-04-20T03:04:06.556Z,165901.11
2019-04-20T03:06:53.322Z,165898.41
2019-04-20T03:09:25.630Z,165914.45
2019-04-20T03:14:21.846Z,165895.77
2019-04-20T03:16:56.836Z,165886.42
2019-04-20T03:19:20.729Z,165877.08
2019-04-20T03:22:05.041Z,165863.67
2019-04-20T03:24:33.927Z,165842.33
2019-04-20T03:27:07.477Z,165865.03
2019-04-20T03:30:40.649Z,165855.69
2019-04-20T03:35:34.276Z,165828.94
2019-04-20T03:37:48.529Z,165812.91
2019-04-20T03:40:12.770Z,165815.55
2019-04-20T03:42:28.862Z,165818.25
2019-04-20T03:45:04.144Z,165796.84
2019-04-20T03:47:38.382Z,165827.59
2019-04-20T03:50:25.050Z,165771.53
2019-04-20T03:52:54.279Z,165686.03
2019-04-20T03:55:40.926Z,165692.72
2019-04-20T03:58:24.146Z,165704.72
2019-04-20T04:00:59.824Z,165651.36
2019-04-20T04:03:59.237Z,165660.70
2019-04-20T04:06:18.399Z,165646.02
2019-04-20T04:08:48.606Z,165623.28
2019-04-20T04:11:22.713Z,165618.00
2019-04-20T04:13:37.781Z,165579.28
2019-04-20T04:16:10.201Z,165559.25
2019-04-20T04:18:42.026Z,165577.94
2019-04-20T04:21:12.650Z,165616.64
2019-04-20T04:23:54.294Z,165607.31
2019-04-20T04:26:27.441Z,165623.28
2019-04-20T04:28:55.974Z,165615.30
2019-04-20T04:31:27.562Z,165668.69
2019-04-20T04:34:00.829Z,165663.34
2019-04-20T04:36:21.226Z,165652.66
2019-04-20T04:39:06.397Z,165628.63
2019-04-20T04:41:28.222Z,165596.63
2019-04-20T04:44:00.632Z,165644.67
2019-04-20T04:46:10.217Z,165663.34
2019-04-20T04:48:42.718Z,165656.66
2019-04-20T04:51:14.875Z,165692.72
2019-04-20T04:53:47.798Z,165676.69
2019-04-20T04:56:13.180Z,165655.36
2019-04-20T04:58:40.393Z,165658.00
2019-04-20T05:01:15.898Z,165663.34
2019-04-20T05:04:05.260Z,165684.73
2019-04-20T05:06:31.818Z,165695.38
2019-04-20T05:08:51.449Z,165712.75
2019-04-20T05:11:17.202Z,165698.08
2019-04-20T05:13:55.689Z,165710.06
2019-04-20T05:16:38.443Z,165719.41
2019-04-20T05:19:09.411Z,165754.13
2019-04-20T05:22:11.106Z,165778.17
2019-04-20T05:24:38.954Z,165774.16
2019-04-20T05:27:36.432Z,165799.56
2019-04-20T05:29:44.719Z,165808.89
2019-04-20T05:32:17.588Z,165830.23
2019-04-20T05:35:09.591Z,165879.72
2019-04-20T05:37:53.661Z,165911.81
2019-04-20T05:40:04.691Z,165955.84
2019-04-20T05:42:35.876Z,166060.09
2019-04-20T05:45:07.306Z,166128.27
2019-04-20T05:47:33.431Z,166243.22
2019-04-20T05:50:00.999Z,166261.97
2019-04-20T05:52:56.160Z,166326.17
2019-04-20T05:55:10.201Z,166316.77
2019-04-20T05:57:42.591Z,166455.89
2019-04-20T06:00:14.255Z,166494.69
2019-04-20T06:02:39.146Z,166560.22
2019-04-20T06:05:28.984Z,166560.22
2019-04-20T06:07:42.398Z,166678.05
2019-04-20T06:10:17.958Z,166604.37
2019-04-20T06:12:45.704Z,166591.02
2019-04-20T06:15:50.659Z,166550.84
2019-04-20T06:18:17.718Z,166679.34
2019-04-20T06:21:00.490Z,166740.94
2019-04-20T06:26:36.981Z,166578.94
2019-04-20T06:28:46.690Z,166739.59
2019-04-20T06:31:34.085Z,166702.13
2019-04-20T06:34:30.285Z,166823.91
2019-04-20T06:36:53.513Z,166789.12
2019-04-20T06:39:34.781Z,166936.37
2019-04-20T06:42:15.398Z,166881.47
2019-04-20T06:44:32.036Z,166898.91
2019-04-20T06:47:08.671Z,166873.44
2019-04-20T06:49:36.759Z,166963.25
2019-04-20T06:52:27.606Z,166853.36
2019-04-20T06:55:20.032Z,166948.52
2019-04-20T06:57:40.671Z,166943.09
2019-04-20T07:02:44.223Z,167113.22
2019-04-20T07:05:13.038Z,167063.69
2019-04-20T07:07:43.182Z,167051.61
2019-04-20T07:12:36.883Z,167136.03
2019-04-20T07:15:08.526Z,167272.72
2019-04-20T07:17:55.142Z,167268.70
2019-04-20T07:20:19.454Z,167203.00
2019-04-20T07:23:05.009Z,167256.67
2019-04-20T07:25:33.212Z,167331.69
2019-04-20T07:28:02.969Z,167459.06
2019-04-20T07:30:30.326Z,167561.03
2019-04-20T07:33:04.374Z,167428.20
2019-04-20T07:35:30.769Z,167715.25
2019-04-20T07:38:18.208Z,167528.75
2019-04-20T07:42:58.737Z,167770.28
2019-04-20T07:45:32.080Z,167721.98
2019-04-20T07:48:07.785Z,167819.94
2019-04-20T07:50:25.086Z,167764.91
2019-04-20T07:52:51.421Z,167821.30
2019-04-20T07:55:42.224Z,167854.84
2019-04-20T07:57:55.162Z,167883.02
2019-04-20T08:00:41.967Z,167936.69
2019-04-20T08:03:33.366Z,167983.66
2019-04-20T08:06:11.540Z,167939.41
2019-04-20T08:08:51.639Z,167791.72
2019-04-20T08:11:24.437Z,167891.09
2019-04-20T08:13:57.950Z,167990.39
2019-04-20T08:16:35.671Z,168022.59
2019-04-20T08:18:55.438Z,168030.67
2019-04-20T08:21:32.732Z,168056.19
2019-04-20T08:23:55.513Z,168075.03
2019-04-20T08:26:15.555Z,168226.73
2019-04-20T08:28:51.945Z,168269.70
2019-04-20T08:31:50.338Z,168288.56
2019-04-20T08:34:31.193Z,168371.84
2019-04-20T08:36:56.686Z,168236.12
2019-04-20T08:39:42.984Z,168128.75
2019-04-20T08:42:00.499Z,168272.42
2019-04-20T08:47:15.866Z,168240.16
2019-04-20T08:49:37.828Z,168420.22
2019-04-20T08:54:26.419Z,168542.55
2019-04-20T08:56:47.995Z,168410.81
2019-04-20T08:59:09.593Z,168473.95
2019-04-20T09:01:39.420Z,168511.58
2019-04-20T09:04:15.363Z,168502.16
2019-04-20T09:06:53.372Z,168402.77
2019-04-20T09:09:42.498Z,168490.09
2019-04-20T09:12:00.837Z,168459.17
2019-04-20T09:14:18.515Z,168560.00
2019-04-20T09:16:57.030Z,168510.27
2019-04-20T09:19:30.844Z,168535.81
2019-04-20T09:22:13.408Z,168588.27
2019-04-20T09:24:52.883Z,168449.78
2019-04-20T09:27:14.303Z,168426.95
2019-04-20T09:29:40.701Z,168523.75
2019-04-20T09:32:24.730Z,168475.31
2019-04-20T09:34:59.998Z,168467.27
2019-04-20T09:37:40.025Z,168429.61
2019-04-20T09:40:29.302Z,168447.11
2019-04-20T09:42:39.770Z,168424.23
2019-04-20T09:45:20.253Z,168522.39
2019-04-20T09:47:44.996Z,168529.13
2019-04-20T09:50:27.888Z,168394.72
2019-04-20T09:52:59.135Z,168463.20
2019-04-20T09:55:24.673Z,168471.30
2019-04-20T09:57:57.653Z,168482.06
2019-04-20T10:00:28.883Z,168418.91
2019-04-20T10:02:44.667Z,168460.53
2019-04-20T10:05:13.580Z,168453.80
2019-04-20T10:07:43.493Z,168455.16
2019-04-20T10:10:21.458Z,168452.50
2019-04-20T10:12:43.954Z,168480.70
2019-04-20T10:15:19.102Z,168569.45
2019-04-20T10:17:43.662Z,168577.50
2019-04-20T10:20:20.822Z,168609.75
2019-04-20T10:22:42.565Z,168542.55
2019-04-20T10:25:10.936Z,168572.12
2019-04-20T10:27:41.871Z,168527.77
2019-04-20T10:30:10.407Z,168543.91
2019-04-20T10:32:43.015Z,168581.53
2019-04-20T10:35:12.210Z,168596.31
2019-04-20T10:37:43.669Z,168605.72
2019-04-20T10:40:13.443Z,168667.53
2019-04-20T10:42:41.909Z,168667.53
2019-04-20T10:45:13.352Z,168702.50
2019-04-20T10:47:43.056Z,168670.25
2019-04-20T10:50:11.704Z,168713.27
2019-04-20T10:52:39.904Z,168674.28
2019-04-20T10:55:08.420Z,168666.23
2019-04-20T10:57:37.594Z,168694.45
2019-04-20T11:00:07.949Z,168728.06
2019-04-20T11:02:37.383Z,168764.38
2019-04-20T11:05:06.585Z,168679.66
2019-04-20T11:07:34.837Z,168640.69
2019-04-20T11:10:13.371Z,168721.31
2019-04-20T11:12:34.576Z,168619.16
2019-04-20T11:15:03.180Z,168664.87
2019-04-20T11:17:31.785Z,168655.47
2019-04-20T11:20:01.347Z,168717.28
2019-04-20T11:22:30.555Z,168787.28
2019-04-20T11:24:58.928Z,168670.25
2019-04-20T11:27:28.032Z,168643.34
2019-04-20T11:29:56.322Z,168750.94
2019-04-20T11:32:24.506Z,168749.59
2019-04-20T11:34:53.317Z,168777.86
2019-04-20T11:37:22.013Z,168785.91
2019-04-20T11:39:50.786Z,168787.28
2019-04-20T11:42:19.526Z,168851.78
2019-04-20T11:44:48.825Z,168834.33
2019-04-20T11:47:17.181Z,168898.87
2019-04-20T11:49:45.865Z,168812.78
2019-04-20T11:52:16.859Z,168841.06
2019-04-20T11:54:44.436Z,168824.91
2019-04-20T11:57:13.290Z,168925.77
2019-04-20T11:59:41.625Z,168853.14
2019-04-20T12:02:40.439Z,168850.47
2019-04-20T12:05:21.085Z,168909.61
2019-04-20T12:07:53.484Z,168873.31
2019-04-20T12:10:23.991Z,168909.61
2019-04-20T12:12:55.404Z,168862.55
2019-04-20T12:15:22.511Z,168772.48
2019-04-20T12:17:51.515Z,168906.94
2019-04-20T12:20:20.879Z,168780.53
2019-04-20T12:22:50.455Z,168906.94
2019-04-20T12:25:18.846Z,168877.34
2019-04-20T12:27:51.138Z,168866.58
2019-04-20T12:30:17.813Z,168863.91
2019-04-20T12:32:51.926Z,168853.14
2019-04-20T12:35:16.497Z,168898.87
2019-04-20T12:37:45.099Z,168960.80
2019-04-20T12:40:16.318Z,168917.70
2019-04-20T12:42:46.647Z,168873.31
2019-04-20T12:45:17.860Z,168882.73
2019-04-20T12:47:47.937Z,168917.70
2019-04-20T12:50:17.357Z,168827.58
2019-04-20T12:52:46.219Z,168909.61
2019-04-20T12:55:16.583Z,168958.06
2019-04-20T12:57:45.260Z,168923.09
2019-04-20T13:00:17.395Z,168816.86
2019-04-20T13:02:45.656Z,168893.50
2019-04-20T13:05:15.403Z,168882.73
2019-04-20T13:07:49.726Z,168892.14
2019-04-20T13:10:16.041Z,168838.34
2019-04-20T13:13:04.651Z,168901.55
2019-04-20T13:15:56.307Z,168859.88
2019-04-20T13:18:36.971Z,168851.78
2019-04-20T13:21:05.319Z,168808.75
2019-04-20T13:23:35.092Z,168890.78
2019-04-20T13:26:05.853Z,168972.88
2019-04-20T13:28:34.716Z,168967.48
2019-04-20T13:31:03.962Z,168912.33
2019-04-20T13:33:33.586Z,168873.31
2019-04-20T13:36:02.131Z,168867.94
2019-04-20T13:38:30.447Z,168896.17
2019-04-20T13:40:59.856Z,168923.09
2019-04-20T13:43:28.157Z,169015.91
2019-04-20T13:45:57.213Z,168836.98
2019-04-20T13:48:26.724Z,168827.58
2019-04-20T13:50:56.071Z,168910.97
2019-04-20T13:53:25.338Z,168896.17
2019-04-20T13:55:54.351Z,168896.17
2019-04-20T13:58:40.967Z,168920.38
2019-04-20T14:01:32.690Z,168908.30
2019-04-20T14:04:08.633Z,168906.94
2019-04-20T14:06:37.340Z,168890.78
2019-04-20T14:09:07.612Z,168948.61
2019-04-20T14:11:36.111Z,168906.94
2019-04-20T14:14:06.464Z,168954.00
2019-04-20T14:16:34.834Z,168998.44
2019-04-20T14:19:03.240Z,169028.03
2019-04-20T14:21:32.188Z,168962.16
2019-04-20T14:24:01.309Z,169065.69
2019-04-20T14:26:30.669Z,169013.25
2019-04-20T14:28:59.001Z,168921.73
2019-04-20T14:31:28.005Z,168951.33
2019-04-20T14:33:57.199Z,168960.80
2019-04-20T14:36:26.545Z,168888.11
2019-04-20T14:38:56.084Z,168904.22
2019-04-20T14:41:24.414Z,168971.56
2019-04-20T14:43:55.139Z,168915.00
2019-04-20T14:46:26.291Z,168948.61
2019-04-20T14:48:54.789Z,168897.53
2019-04-20T14:51:23.744Z,168909.61
2019-04-20T14:53:53.784Z,168900.19
2019-04-20T14:56:23.406Z,168849.11
2019-04-20T14:59:05.241Z,168854.50
2019-04-20T15:01:48.175Z,168863.91
2019-04-20T15:04:19.597Z,168831.59
2019-04-20T15:06:46.688Z,168853.14
2019-04-20T15:09:14.932Z,168767.09
2019-04-20T15:11:45.209Z,168753.67
2019-04-20T15:14:14.430Z,168804.73
2019-04-20T15:16:42.867Z,168776.50
2019-04-20T15:19:43.360Z,168827.58
2019-04-20T15:22:31.551Z,168859.88
2019-04-20T15:25:00.065Z,168846.41
2019-04-20T15:27:28.588Z,168802.06
2019-04-20T15:29:57.924Z,168775.14
2019-04-20T15:32:27.100Z,168842.37
2019-04-20T15:34:55.400Z,168763.08
2019-04-20T15:37:23.609Z,168802.06
2019-04-20T15:39:52.821Z,168793.97
2019-04-20T15:42:21.300Z,168830.30
2019-04-20T15:44:49.739Z,168839.70
2019-04-20T15:47:17.979Z,168775.14
2019-04-20T15:49:46.313Z,168792.61
2019-04-20T15:52:22.097Z,168800.70
2019-04-20T15:54:45.526Z,168772.48
2019-04-20T15:57:18.392Z,168750.94
2019-04-20T15:59:44.494Z,168753.67
2019-04-20T16:02:29.353Z,168694.45
2019-04-20T16:05:04.042Z,168663.52
2019-04-20T16:07:39.097Z,168722.67
2019-04-20T16:10:03.312Z,168764.38
2019-04-20T16:12:33.009Z,168689.06
2019-04-20T16:15:02.057Z,168633.94
2019-04-20T16:17:36.855Z,168679.66
2019-04-20T16:20:07.952Z,168664.87
2019-04-20T16:22:31.048Z,168699.83
2019-04-20T16:25:05.515Z,168654.11
2019-04-20T16:27:36.023Z,168584.19
2019-04-20T16:30:07.543Z,168596.31
2019-04-20T16:32:36.612Z,168592.28
2019-04-20T16:35:08.586Z,168560.00
2019-04-20T16:37:38.259Z,168558.69
2019-04-20T16:40:07.968Z,168565.38
2019-04-20T16:42:39.272Z,168573.48
2019-04-20T16:45:07.403Z,168531.78
2019-04-20T16:47:36.561Z,168534.50
2019-04-20T16:50:06.795Z,168463.20
2019-04-20T16:52:36.760Z,168491.47
2019-04-20T16:55:06.446Z,168465.92
2019-04-20T16:57:35.054Z,168422.92
2019-04-20T17:00:05.350Z,168417.55
2019-04-20T17:02:34.059Z,168355.77
2019-04-20T17:05:03.108Z,168398.75
2019-04-20T17:07:37.363Z,168345.00
2019-04-20T17:10:07.506Z,168293.94
2019-04-20T17:12:37.518Z,168269.70
2019-04-20T17:15:11.651Z,168310.06
2019-04-20T17:17:40.061Z,168315.44
2019-04-20T17:20:11.438Z,168267.05
2019-04-20T17:22:40.254Z,168232.11
2019-04-20T17:25:10.112Z,168220.05
2019-04-20T17:28:04.699Z,168211.95
2019-04-20T17:30:59.176Z,168203.92
2019-04-20T17:33:36.274Z,168163.63
2019-04-20T17:36:11.004Z,168138.14
2019-04-20T17:38:37.514Z,168148.84
2019-04-20T17:41:16.695Z,168105.89
2019-04-20T17:43:50.710Z,168088.45
2019-04-20T17:46:11.930Z,168089.81
2019-04-20T17:48:45.077Z,168044.09
2019-04-20T17:51:23.497Z,168044.09
2019-04-20T17:54:06.836Z,168030.67
2019-04-20T17:56:36.289Z,168030.67
2019-04-20T17:59:06.058Z,167997.13
2019-04-20T18:02:25.542Z,167968.94
2019-04-20T18:05:26.881Z,167958.19
2019-04-20T18:07:52.468Z,167889.73
2019-04-20T18:10:26.250Z,167880.34
2019-04-20T18:12:44.016Z,167845.45
2019-04-20T18:15:29.374Z,167836.06
2019-04-20T18:18:18.749Z,167795.73
2019-04-20T18:21:01.122Z,167774.30
2019-04-20T18:23:36.358Z,167751.45
2019-04-20T18:26:22.744Z,167713.91
2019-04-20T18:28:51.650Z,167689.75
2019-04-20T18:31:19.601Z,167679.02
2019-04-20T18:33:50.564Z,167662.95
2019-04-20T18:36:27.286Z,167615.97
2019-04-20T18:38:57.497Z,167597.20
2019-04-20T18:41:30.922Z,167563.69
2019-04-20T18:43:54.035Z,167555.66
2019-04-20T18:46:44.034Z,167535.53
2019-04-20T18:49:10.226Z,167514.06
2019-04-20T18:51:21.762Z,167495.23
2019-04-20T18:53:53.539Z,167485.84
2019-04-20T18:56:27.927Z,167432.22
2019-04-20T18:58:53.420Z,167426.91
2019-04-20T19:01:29.414Z,167418.83
2019-04-20T19:03:52.352Z,167365.20
2019-04-20T19:06:21.257Z,167327.69
2019-04-20T19:08:51.873Z,167295.53
2019-04-20T19:11:21.722Z,167300.91
2019-04-20T19:14:16.404Z,167278.08
2019-04-20T19:16:52.430Z,167245.88
2019-04-20T19:19:24.540Z,167231.14
2019-04-20T19:21:46.181Z,167196.28
2019-04-20T19:24:16.887Z,167180.25
2019-04-20T19:26:50.846Z,167172.17
2019-04-20T19:29:24.307Z,167146.75
2019-04-20T19:32:07.336Z,167141.39
2019-04-20T19:34:35.406Z,167125.30
2019-04-20T19:36:59.117Z,167090.45
2019-04-20T19:39:29.962Z,167081.08
2019-04-20T19:41:54.027Z,167050.25
2019-04-20T19:44:28.870Z,167062.34
2019-04-20T19:47:05.236Z,167054.31
2019-04-20T19:49:25.376Z,167036.88
2019-04-20T19:52:18.983Z,167051.61
2019-04-20T19:54:43.000Z,167008.75
2019-04-20T19:57:01.286Z,167019.47
2019-04-20T19:59:26.104Z,166983.28
2019-04-20T20:01:47.725Z,166975.28
2019-04-20T20:04:17.463Z,166955.19
2019-04-20T20:06:51.806Z,166947.16
2019-04-20T20:09:17.798Z,166936.37
2019-04-20T20:11:46.737Z,166912.28
2019-04-20T20:14:18.031Z,166898.91
2019-04-20T20:17:02.674Z,166892.19
2019-04-20T20:19:32.825Z,166861.42
2019-04-20T20:21:59.066Z,166843.98
2019-04-20T20:24:18.043Z,166837.33
2019-04-20T20:26:55.756Z,166806.52
2019-04-20T20:29:27.473Z,166793.14
2019-04-20T20:32:03.643Z,166769.05
2019-04-20T20:34:28.017Z,166758.33
2019-04-20T20:36:54.928Z,166748.97
2019-04-20T20:39:24.242Z,166738.23
2019-04-20T20:42:04.958Z,166742.25
2019-04-20T20:44:33.117Z,166698.06
2019-04-20T20:46:59.231Z,166692.77
2019-04-20T20:49:40.267Z,166665.97
2019-04-20T20:52:13.329Z,166659.25
2019-04-20T20:54:33.678Z,166673.98
2019-04-20T20:57:01.461Z,166644.59
2019-04-20T20:59:34.751Z,166627.16
2019-04-20T21:02:04.801Z,166609.73
2019-04-20T21:04:23.867Z,166589.66
2019-04-20T21:06:52.806Z,166574.94
2019-04-20T21:09:24.148Z,166552.20
2019-04-20T21:12:02.377Z,166542.84
2019-04-20T21:14:27.164Z,166541.48
2019-04-20T21:17:02.992Z,166526.77
2019-04-20T21:19:43.066Z,166512.05
2019-04-20T21:21:59.855Z,166497.34
2019-04-20T21:24:30.432Z,166486.63
2019-04-20T21:27:00.681Z,166455.89
2019-04-20T21:29:35.897Z,166441.17
2019-04-20T21:32:05.082Z,166459.91
2019-04-20T21:34:29.446Z,166421.11
2019-04-20T21:37:03.502Z,166431.81
2019-04-20T21:39:38.946Z,166383.67
2019-04-20T21:42:05.442Z,166378.31
2019-04-20T21:44:35.102Z,166382.31
2019-04-20T21:47:01.374Z,166358.25
2019-04-20T21:49:42.245Z,166300.75
2019-04-20T21:52:03.671Z,166288.69
2019-04-20T21:54:29.842Z,166310.11
2019-04-20T21:57:03.134Z,166299.41
2019-04-20T21:59:37.194Z,166269.98
2019-04-20T22:02:06.518Z,166251.27
2019-04-20T22:04:29.728Z,166235.16
2019-04-20T22:06:58.299Z,166249.92
2019-04-20T22:09:36.684Z,166241.86
2019-04-20T22:11:58.112Z,166241.86
2019-04-20T22:14:28.450Z,166225.81
2019-04-20T22:17:00.057Z,166217.80
2019-04-20T22:19:38.756Z,166161.67
2019-04-20T22:22:05.562Z,166183.03
2019-04-20T22:24:42.464Z,166207.09
2019-04-20T22:27:06.480Z,166165.69
2019-04-20T22:29:30.105Z,166116.22
2019-04-20T22:32:03.948Z,166126.91
2019-04-20T22:34:30.178Z,166120.22
2019-04-20T22:36:59.918Z,166066.75
2019-04-20T22:39:39.864Z,166101.50
2019-04-20T22:42:07.341Z,166050.75
2019-04-20T22:44:34.820Z,166049.41
2019-04-20T22:47:05.364Z,166053.41
2019-04-20T22:49:48.177Z,166058.75
2019-04-20T22:52:18.563Z,166013.30
2019-04-20T22:54:48.949Z,165914.45
2019-04-20T22:57:19.333Z,165953.20
2019-04-20T22:59:44.677Z,165850.33
2019-04-20T23:02:07.609Z,165867.72
2019-04-20T23:04:35.215Z,165832.94
2019-04-20T23:07:05.052Z,165648.66
2019-04-20T23:09:39.471Z,165740.78
2019-04-20T23:12:09.641Z,165730.09
2019-04-20T23:14:34.301Z,165731.44
2019-04-20T23:17:04.114Z,165732.80
2019-04-20T23:19:41.581Z,165692.72
2019-04-20T23:22:05.364Z,165759.47
2019-04-20T23:24:33.297Z,165755.48
2019-04-20T23:27:04.467Z,165703.41
2019-04-20T23:29:38.026Z,165605.95
2019-04-20T23:32:07.703Z,165599.25
2019-04-20T23:34:34.582Z,165608.59
2019-04-20T23:37:08.760Z,165573.94
2019-04-20T23:39:37.336Z,165584.58
2019-04-20T23:42:08.942Z,165557.91
2019-04-20T23:44:52.107Z,165596.63
2019-04-20T23:47:45.466Z,165655.36
2019-04-20T23:50:30.545Z,165607.31
2019-04-20T23:53:01.381Z,165604.61
2019-04-20T23:55:13.431Z,165609.95
2019-04-20T23:57:41.941Z,165561.91
